Terminal Aerodrome Forecast
Issued by NWS

Home | Current Version | Previous Version | Text Only | Print | Product List | Glossary On
Versions: 1 2 3 4 5 6 7 8 9 10 11 12 13
000
FTUS43 KMQT 201121
TAFIWD
TAF
KIWD 201121Z 2012/2112 19009KT P6SM SCT200
     FM201900 24009KT P6SM BKN120
     FM210100 28005KT P6SM BKN120
     FM210200 26004KT P6SM SCT120=

USA.gov is the U.S. government's official web portal to all federal, state and local government web resources and services.